Hauptseite
METAR-TAF:

METAR-TAF

Flughäfen :

Newquay Cornwall Airport

Newquay Cornwall, England

Breite: 50-26N, Länge: 005-00W, Höhe: 119 m

Beobachtung

Neuester Wetterbericht von vor 1 Stunde und 47 Minuten, um 09:20 UTC
Wind 2 kt aus unterschiedlichen Richtungen
Temperatur 18°C
Luftfeuchtigkeit 68%
Luftdruck 1020 hPa
Sichtweite 10 km oder mehr
Leicht bewölkt in der Höhe von 3000 ft
Durchbrochene Bewölkung in der Höhe von 4500 ft

METAR: EGHQ 190920Z VRB02KT 9999 FEW030 BKN045 18/12 Q1020

Zeit: 12:07 (11:07 UTC)

Prognose

Neuester Wetterbericht von vor 3 Stunden und 8 Minuten, um 07:59 UTC
Gültige Prognose vom 19 um 09 UTC bis 19 um 18 UTC
Wind 5 kt aus Nordwest
Sichtweite 10 km oder mehr
Aufgelockert bewölkt in der Höhe von 3500 ft

TAF: EGHQ 190759Z 1909/1918 32005KT 9999 SCT035

Wetterbeobachtungen und Prognosen von mehr als 4000 Flughäfen (METAR und TAF Bericht).

Die verfügbaren Stationen werden durch gelbe und rote Markierungen auf der Karte dargestellt.

Führen Sie die Maus auf sie, um den Namen der Station zu sehen.

Darauf klicken, um die Beobachtung von Wetterbeobachtungen und Prognosen zu sehen.

Um die Karte zu ändern : klicken Sie auf den grünen Tasten mit einem schwarzen Kreuz Zum Vergrößern, auf den grünen Button mit einem Gedankenstrich zu verkleinern, oder auf die grünen Pfeile für benachbarte Karten.


METAR-TAF: